createdAt,value
2022-09-12T00:02:01.614Z,5.15
2022-09-12T00:07:25.977Z,5.20
2022-09-12T00:12:52.668Z,4.82
2022-09-12T00:18:18.349Z,5.43
2022-09-12T00:23:43.046Z,6.13
2022-09-12T00:29:09.215Z,5.60
2022-09-12T00:34:33.607Z,4.90
2022-09-12T00:39:58.634Z,5.00
2022-09-12T00:45:30.693Z,5.15
2022-09-12T00:50:55.419Z,5.80
2022-09-12T00:56:20.660Z,4.78
2022-09-12T01:01:51.339Z,5.30
2022-09-12T01:07:16.585Z,5.38
2022-09-12T01:12:43.685Z,7.30
2022-09-12T01:18:21.931Z,7.65
2022-09-12T01:24:09.339Z,6.00
2022-09-12T01:29:53.766Z,6.13
2022-09-12T01:35:29.208Z,6.47
2022-09-12T01:41:03.061Z,6.65
2022-09-12T01:46:34.793Z,6.38
2022-09-12T01:52:12.168Z,6.10
2022-09-12T01:57:41.336Z,7.90
2022-09-12T02:03:12.567Z,7.13
2022-09-12T02:08:44.001Z,6.55
2022-09-12T02:14:13.201Z,6.80
2022-09-12T02:19:42.612Z,7.35
2022-09-12T02:25:12.103Z,7.05
2022-09-12T02:30:43.315Z,7.23
2022-09-12T02:36:15.676Z,7.13
2022-09-12T02:41:41.706Z,7.47
2022-09-12T02:47:12.668Z,12.18
2022-09-12T02:52:37.334Z,7.65
2022-09-12T02:58:05.024Z,9.77
2022-09-12T03:03:51.229Z,10.35
2022-09-12T03:09:21.364Z,10.25
2022-09-12T03:15:02.276Z,9.75
2022-09-12T03:20:42.063Z,8.20
2022-09-12T03:26:12.063Z,9.05
2022-09-12T03:31:39.492Z,8.10
2022-09-12T03:37:04.145Z,7.70
2022-09-12T03:42:28.069Z,6.45
2022-09-12T03:47:53.628Z,6.40
2022-09-12T03:53:19.400Z,6.38
2022-09-12T03:58:44.000Z,6.70
2022-09-12T04:04:09.901Z,6.80
2022-09-12T04:09:33.957Z,6.60
2022-09-12T04:14:58.171Z,6.28
2022-09-12T04:20:25.616Z,6.35
2022-09-12T04:25:55.505Z,6.50
2022-09-12T04:31:20.819Z,6.88
2022-09-12T04:36:47.022Z,5.72
2022-09-12T04:42:11.779Z,7.68
2022-09-12T04:47:38.818Z,7.43
2022-09-12T04:53:04.356Z,7.80
2022-09-12T04:58:28.917Z,7.43
2022-09-12T05:03:54.093Z,8.93
2022-09-12T05:09:20.925Z,9.68
2022-09-12T05:14:45.445Z,10.00
2022-09-12T05:20:12.806Z,9.73
2022-09-12T05:25:40.972Z,9.18
2022-09-12T05:31:07.665Z,9.60
2022-09-12T05:36:32.083Z,10.70
2022-09-12T05:41:57.389Z,8.88
2022-09-12T05:47:21.773Z,9.48
2022-09-12T05:52:45.872Z,6.97
2022-09-12T05:58:11.528Z,8.15
2022-09-12T06:03:37.276Z,7.65
2022-09-12T06:09:04.629Z,7.03
2022-09-12T06:14:30.525Z,6.68
2022-09-12T06:19:55.391Z,9.05
2022-09-12T06:25:22.145Z,9.30
2022-09-12T06:30:48.865Z,9.70
2022-09-12T06:36:15.316Z,10.88
2022-09-12T06:41:43.648Z,11.25
2022-09-12T06:47:09.470Z,11.57
2022-09-12T06:52:34.108Z,13.95
2022-09-12T06:57:59.964Z,14.32
2022-09-12T07:03:25.010Z,21.35
2022-09-12T07:08:50.701Z,22.58
2022-09-12T07:14:16.045Z,23.95
2022-09-12T07:19:41.856Z,23.58
2022-09-12T07:25:06.655Z,27.65
2022-09-12T07:30:31.368Z,19.08
2022-09-12T07:36:03.590Z,13.02
2022-09-12T07:41:31.157Z,12.13
2022-09-12T07:46:55.161Z,9.77
2022-09-12T07:52:20.807Z,7.07
2022-09-12T07:57:46.144Z,4.70
2022-09-12T08:03:11.297Z,4.95
2022-09-12T08:08:37.493Z,4.10
2022-09-12T08:14:03.069Z,5.00
2022-09-12T08:19:27.553Z,4.65
2022-09-12T08:24:53.729Z,4.35
2022-09-12T08:30:18.960Z,5.50
2022-09-12T08:35:42.841Z,4.57
2022-09-12T08:41:15.817Z,5.72
2022-09-12T08:46:48.116Z,5.88
2022-09-12T08:52:18.260Z,5.13
2022-09-12T08:57:43.585Z,6.00
2022-09-12T09:03:28.140Z,4.32
2022-09-12T09:09:01.381Z,3.28
2022-09-12T09:15:12.384Z,4.47
2022-09-12T09:20:42.577Z,4.63
2022-09-12T09:26:14.393Z,5.13
2022-09-12T09:31:40.747Z,4.95
2022-09-12T09:37:15.081Z,4.57
2022-09-12T09:42:45.773Z,4.57
2022-09-12T09:48:19.451Z,5.50
2022-09-12T09:53:49.243Z,5.65
2022-09-12T09:59:16.389Z,5.20
2022-09-12T10:04:53.967Z,4.95
2022-09-12T10:15:58.828Z,5.97
2022-09-12T10:21:41.378Z,5.45
2022-09-12T10:27:10.819Z,6.53
2022-09-12T10:32:38.671Z,6.65
2022-09-12T10:43:36.322Z,6.85
2022-09-12T10:49:25.984Z,8.68
2022-09-12T10:54:52.785Z,8.07
2022-09-12T11:00:20.340Z,8.98
2022-09-12T11:05:56.672Z,7.07
2022-09-12T11:11:39.490Z,13.63
2022-09-12T11:17:19.826Z,8.65
2022-09-12T11:23:08.524Z,8.30
2022-09-12T11:28:47.261Z,8.13
2022-09-12T11:34:17.832Z,8.50
2022-09-12T11:39:46.613Z,7.60
2022-09-12T11:45:18.619Z,8.13
2022-09-12T11:50:43.493Z,7.13
2022-09-12T11:56:15.545Z,7.18
2022-09-12T12:01:48.577Z,7.97
2022-09-12T12:07:15.386Z,7.82
2022-09-12T12:12:44.893Z,7.80
2022-09-12T12:18:19.412Z,7.50
2022-09-12T12:24:04.857Z,7.40
2022-09-12T12:29:43.885Z,7.05
2022-09-12T12:35:45.240Z,6.60
2022-09-12T12:41:45.146Z,7.45
2022-09-12T12:47:19.796Z,8.30
2022-09-12T12:52:50.394Z,7.38
2022-09-12T12:58:32.099Z,7.55
2022-09-12T13:04:00.724Z,7.07
2022-09-12T13:09:33.655Z,7.85
2022-09-12T13:15:00.833Z,6.88
2022-09-12T13:20:31.636Z,7.00
2022-09-12T13:25:59.943Z,10.18
2022-09-12T13:31:28.560Z,7.73
2022-09-12T13:37:11.084Z,6.93
2022-09-12T13:42:42.625Z,7.68
2022-09-12T13:48:11.371Z,6.50
2022-09-12T13:53:44.569Z,7.20
2022-09-12T13:59:13.512Z,7.43
2022-09-12T14:04:57.157Z,7.40
2022-09-12T14:10:30.272Z,7.03
2022-09-12T14:15:58.300Z,9.35
2022-09-12T14:21:34.044Z,7.30
2022-09-12T14:26:58.869Z,7.85
2022-09-12T14:32:26.389Z,9.05
2022-09-12T14:37:52.564Z,6.70
2022-09-12T14:43:21.315Z,7.63
2022-09-12T14:48:52.604Z,7.03
2022-09-12T14:54:42.577Z,7.20
2022-09-12T15:00:17.886Z,7.38
2022-09-12T15:05:51.867Z,7.18
2022-09-12T15:11:16.490Z,7.82
2022-09-12T15:16:41.116Z,6.72
2022-09-12T15:22:07.894Z,7.72
2022-09-12T15:27:32.769Z,7.97
2022-09-12T15:33:01.597Z,6.22
2022-09-12T15:38:28.587Z,8.50
2022-09-12T15:43:53.714Z,11.15
2022-09-12T15:49:17.769Z,11.07
2022-09-12T15:54:44.714Z,10.13
2022-09-12T16:00:11.975Z,9.07
2022-09-12T16:05:38.783Z,7.80
2022-09-12T16:11:08.717Z,6.70
2022-09-12T16:16:33.003Z,4.90
2022-09-12T16:21:57.696Z,5.60
2022-09-12T16:27:23.404Z,6.43
2022-09-12T16:32:48.362Z,5.50
2022-09-12T16:38:12.724Z,5.50
2022-09-12T16:43:40.617Z,5.47
2022-09-12T16:49:07.258Z,6.32
2022-09-12T16:54:31.562Z,6.13
2022-09-12T16:59:57.010Z,5.63
2022-09-12T17:05:21.027Z,5.38
2022-09-12T17:10:46.436Z,5.63
2022-09-12T17:16:14.189Z,5.10
2022-09-12T17:21:38.615Z,5.30
2022-09-12T17:27:02.916Z,4.55
2022-09-12T17:32:28.870Z,6.28
2022-09-12T17:37:54.330Z,5.75
2022-09-12T17:43:19.850Z,5.80
2022-09-12T17:48:48.940Z,5.25
2022-09-12T17:54:15.770Z,5.88
2022-09-12T17:59:41.945Z,6.75
2022-09-12T18:05:10.373Z,4.57
2022-09-12T18:10:35.910Z,5.10
2022-09-12T18:16:04.944Z,4.95
2022-09-12T18:21:33.315Z,4.53
2022-09-12T18:26:58.069Z,4.65
2022-09-12T18:32:23.686Z,6.10
2022-09-12T18:37:49.237Z,4.88
2022-09-12T18:43:15.711Z,4.93
2022-09-12T18:48:39.661Z,5.35
2022-09-12T18:54:08.781Z,6.43
2022-09-12T18:59:33.769Z,7.50
2022-09-12T19:04:59.434Z,8.73
2022-09-12T19:10:25.685Z,8.70
2022-09-12T19:15:50.527Z,10.57
2022-09-12T19:21:17.518Z,10.85
2022-09-12T19:26:43.132Z,10.93
2022-09-12T19:32:08.398Z,9.95
2022-09-12T19:37:32.811Z,8.73
2022-09-12T19:42:58.312Z,6.80
2022-09-12T19:48:22.771Z,7.40
2022-09-12T19:53:47.041Z,8.35
2022-09-12T19:59:13.324Z,8.38
2022-09-12T20:04:39.110Z,9.05
2022-09-12T20:10:04.132Z,10.15
2022-09-12T20:15:29.438Z,14.68
2022-09-12T20:20:53.516Z,14.52
2022-09-12T20:26:18.031Z,15.13
2022-09-12T20:31:44.261Z,14.35
2022-09-12T20:37:08.540Z,12.30
2022-09-12T20:42:32.380Z,11.63
2022-09-12T20:47:58.741Z,11.40
2022-09-12T20:53:24.643Z,11.45
2022-09-12T20:58:48.704Z,10.68
2022-09-12T21:04:15.221Z,9.93
2022-09-12T21:09:40.481Z,10.75
2022-09-12T21:15:05.726Z,16.02
2022-09-12T21:20:35.681Z,12.20
2022-09-12T21:26:00.331Z,11.00
2022-09-12T21:31:27.206Z,12.88
2022-09-12T21:36:52.960Z,11.73
2022-09-12T21:42:18.743Z,13.50
2022-09-12T21:47:43.469Z,16.10
2022-09-12T21:53:09.340Z,16.27
2022-09-12T21:58:33.640Z,15.38
2022-09-12T22:03:59.480Z,15.15
2022-09-12T22:09:25.735Z,16.45
2022-09-12T22:14:50.173Z,15.65
2022-09-12T22:20:17.198Z,13.07
2022-09-12T22:25:42.803Z,11.55
2022-09-12T22:31:07.830Z,10.13
2022-09-12T22:36:36.993Z,9.25
2022-09-12T22:42:05.048Z,8.90
2022-09-12T22:47:29.276Z,9.27
2022-09-12T22:52:54.173Z,8.98
2022-09-12T22:58:22.160Z,9.30
2022-09-12T23:03:47.246Z,9.80
2022-09-12T23:09:12.899Z,10.48
2022-09-12T23:14:38.670Z,10.75
2022-09-12T23:20:04.011Z,11.15
2022-09-12T23:25:29.169Z,11.02
2022-09-12T23:30:56.843Z,10.52
2022-09-12T23:36:22.502Z,11.02
2022-09-12T23:41:47.679Z,10.55
2022-09-12T23:47:13.601Z,10.02
2022-09-12T23:52:37.536Z,11.38
2022-09-12T23:58:02.045Z,10.60
